Legacy — WDC3497 — position and weather

sailwx.info

Track history (hours):
 
Tides and Currents Weather Stations Pressure Air Temp Water Temp Dewpoint Dewpoint Depression Visibility Wind Speed Wind Dir Waves Ship Positions

Legacy

Owner: Scheffer, Mark M, Vineyard Haven, MA. More information available from US FCC via Universal Licensing System and Coast Guard Vessel Documentation Center.

Last reported at 2018-Jun-17 20:02 UTC. Time now 2018-Jun-19 10:34 UTC.
Position N 44°13' W 069°03'.

Length 12 m.

Type: Sailing vessel. MMSI: 367008970.

Date/timePositionNaut miles runAvg speedWind from/ knotsBaromVisibWave heightAir tempDewpointWater temp
2018-Jun-17 20:02N 44°13' W 069°03'0 2.9
2018-Jun-17 20:00N 44°12' W 069°03'2 4.0
2018-Jun-17 19:30N 44°11' W 069°01'2 3.6
2018-Jun-17 19:00N 44°10' W 068°60'2 3.8
2018-Jun-17 18:30N 44°10' W 069°02'1 1.8
2018-Jun-17 17:59N 44°09' W 069°01'1 1.8
2018-Jun-17 17:27N 44°10' W 069°00'2 5.4
2018-Jun-17 17:00N 44°12' W 069°03'0 0.5
2018-Jun-17 16:27N 44°12' W 069°03'1 1.1
2018-Jun-17 15:58N 44°13' W 069°03'0 0.0
2018-Jun-17 15:22N 44°13' W 069°03'0 0.1
2018-Jun-17 14:42N 44°12' W 069°03'0 0.0
2018-Jun-16 21:35N 44°12' W 069°03'1 5.4
2018-Jun-16 21:28N 44°12' W 069°03'2 2.7
2018-Jun-16 20:52N 44°13' W 069°02'1 1.4
2018-Jun-16 20:19N 44°13' W 069°02'0 0.7
2018-Jun-16 19:58N 44°12' W 069°02'1 3.1
2018-Jun-16 19:30N 44°11' W 069°02'1 2.3
2018-Jun-16 18:59N 44°12' W 069°03'0 0.1
2018-Jun-16 18:30N 44°12' W 069°03'0 0.0
2018-Jun-16 17:55N 44°12' W 069°02'0 0.2
2018-Jun-16 17:21N 44°12' W 069°03'0 0.4
2018-Jun-16 17:01N 44°12' W 069°02'1 1.6
2018-Jun-16 16:23N 44°12' W 069°04'0 0.0
2018-Jun-16 16:00N 44°12' W 069°04'0 0.0
2018-Jun-16 15:29N 44°12' W 069°04'0 0.7
2018-Jun-16 15:00N 44°13' W 069°03'  
2018-Jun-10 18:50N 44°13' W 069°04'0 0.1
2018-Jun-10 18:29N 44°13' W 069°04'2 3.3
2018-Jun-10 17:59N 44°12' W 069°02'3 5.6
2018-Jun-10 17:28N 44°11' W 068°58'0 0.0
2018-Jun-08 17:41N 44°11' W 068°58'1 7.0
2018-Jun-08 17:30N 44°12' W 068°60'3 5.5
2018-Jun-08 16:59N 44°12' W 069°04'  
Track history (hours):
 
Tides and Currents Weather Stations Pressure Air Temp Water Temp Dewpoint Dewpoint Depression Visibility Wind Speed Wind Dir Waves Ship Positions

Legacy

Owner: Scheffer, Mark M, Vineyard Haven, MA. More information available from US FCC via Universal Licensing System and Coast Guard Vessel Documentation Center.

Last reported at 2018-Jun-17 20:02 UTC. Time now 2018-Jun-19 10:34 UTC.
Position N 44°13' W 069°03'.

Length 12 m.

Type: Sailing vessel. MMSI: 367008970.

Date/timePositionNaut miles runAvg speedWind from/ knotsBaromVisibWave heightAir tempDewpointWater temp
2018-Jun-17 20:02N 44°13' W 069°03'0 2.9
2018-Jun-17 20:00N 44°12' W 069°03'2 4.0
2018-Jun-17 19:30N 44°11' W 069°01'2 3.6
2018-Jun-17 19:00N 44°10' W 068°60'2 3.8
2018-Jun-17 18:30N 44°10' W 069°02'1 1.8
2018-Jun-17 17:59N 44°09' W 069°01'1 1.8
2018-Jun-17 17:27N 44°10' W 069°00'2 5.4
2018-Jun-17 17:00N 44°12' W 069°03'0 0.5
2018-Jun-17 16:27N 44°12' W 069°03'1 1.1
2018-Jun-17 15:58N 44°13' W 069°03'0 0.0
2018-Jun-17 15:22N 44°13' W 069°03'0 0.1
2018-Jun-17 14:42N 44°12' W 069°03'0 0.0
2018-Jun-16 21:35N 44°12' W 069°03'1 5.4
2018-Jun-16 21:28N 44°12' W 069°03'2 2.7
2018-Jun-16 20:52N 44°13' W 069°02'1 1.4
2018-Jun-16 20:19N 44°13' W 069°02'0 0.7
2018-Jun-16 19:58N 44°12' W 069°02'1 3.1
2018-Jun-16 19:30N 44°11' W 069°02'1 2.3
2018-Jun-16 18:59N 44°12' W 069°03'0 0.1
2018-Jun-16 18:30N 44°12' W 069°03'0 0.0
2018-Jun-16 17:55N 44°12' W 069°02'0 0.2
2018-Jun-16 17:21N 44°12' W 069°03'0 0.4
2018-Jun-16 17:01N 44°12' W 069°02'1 1.6
2018-Jun-16 16:23N 44°12' W 069°04'0 0.0
2018-Jun-16 16:00N 44°12' W 069°04'0 0.0
2018-Jun-16 15:29N 44°12' W 069°04'0 0.7
2018-Jun-16 15:00N 44°13' W 069°03'  
2018-Jun-10 18:50N 44°13' W 069°04'0 0.1
2018-Jun-10 18:29N 44°13' W 069°04'2 3.3
2018-Jun-10 17:59N 44°12' W 069°02'3 5.6
2018-Jun-10 17:28N 44°11' W 068°58'0 0.0
2018-Jun-08 17:41N 44°11' W 068°58'1 7.0
2018-Jun-08 17:30N 44°12' W 068°60'3 5.5
2018-Jun-08 16:59N 44°12' W 069°04'  

Dump ship's entire track history